createdAt,value
2023-02-21T00:01:40.255Z,23.50
2023-02-21T00:04:07.070Z,22.10
2023-02-21T00:06:33.445Z,23.45
2023-02-21T00:08:59.883Z,22.48
2023-02-21T00:11:26.287Z,21.23
2023-02-21T00:13:52.801Z,22.00
2023-02-21T00:16:19.133Z,22.30
2023-02-21T00:18:45.712Z,21.83
2023-02-21T00:21:12.489Z,21.95
2023-02-21T00:23:39.175Z,22.17
2023-02-21T00:26:05.484Z,20.35
2023-02-21T00:28:31.859Z,19.55
2023-02-21T00:30:58.265Z,20.92
2023-02-21T00:33:24.876Z,21.08
2023-02-21T00:35:51.288Z,18.95
2023-02-21T00:38:17.696Z,18.75
2023-02-21T00:40:44.010Z,19.60
2023-02-21T00:43:10.385Z,17.48
2023-02-21T00:45:37.040Z,18.45
2023-02-21T00:48:03.799Z,18.95
2023-02-21T00:50:30.145Z,17.67
2023-02-21T00:52:56.538Z,17.80
2023-02-21T00:55:22.946Z,17.70
2023-02-21T00:57:49.671Z,17.77
2023-02-21T01:00:16.074Z,16.85
2023-02-21T01:02:42.580Z,16.42
2023-02-21T01:05:09.290Z,16.65
2023-02-21T01:07:35.938Z,16.77
2023-02-21T01:10:02.396Z,15.57
2023-02-21T01:12:28.755Z,16.08
2023-02-21T01:14:55.094Z,16.45
2023-02-21T01:17:21.740Z,15.77
2023-02-21T01:19:48.101Z,15.73
2023-02-21T01:22:14.928Z,16.40
2023-02-21T01:24:41.377Z,16.30
2023-02-21T01:27:08.006Z,16.38
2023-02-21T01:29:34.331Z,13.90
2023-02-21T01:32:01.352Z,16.20
2023-02-21T01:34:27.892Z,14.07
2023-02-21T01:36:54.430Z,14.23
2023-02-21T01:39:21.066Z,13.95
2023-02-21T01:41:47.406Z,16.13
2023-02-21T01:44:13.721Z,14.43
2023-02-21T01:46:40.265Z,14.63
2023-02-21T01:49:06.677Z,13.18
2023-02-21T01:51:32.973Z,13.60
2023-02-21T01:53:59.259Z,14.20
2023-02-21T01:56:25.658Z,14.13
2023-02-21T01:58:52.199Z,13.60
2023-02-21T02:01:19.206Z,13.55
2023-02-21T02:03:46.193Z,12.98
2023-02-21T02:06:12.765Z,13.35
2023-02-21T02:08:39.360Z,12.60
2023-02-21T02:11:06.098Z,12.95
2023-02-21T02:13:32.671Z,12.70
2023-02-21T02:15:59.026Z,12.50
2023-02-21T02:18:25.713Z,12.82
2023-02-21T02:20:52.119Z,13.23
2023-02-21T02:23:18.445Z,13.10
2023-02-21T02:25:44.780Z,11.68
2023-02-21T02:28:11.125Z,13.85
2023-02-21T02:30:37.638Z,12.50
2023-02-21T02:33:04.225Z,11.13
2023-02-21T02:35:30.682Z,12.00
2023-02-21T02:37:57.071Z,12.88
2023-02-21T02:40:23.703Z,11.98
2023-02-21T02:42:50.117Z,12.52
2023-02-21T02:45:16.786Z,12.07
2023-02-21T02:47:43.442Z,11.15
2023-02-21T02:50:09.793Z,11.88
2023-02-21T02:52:36.169Z,11.40
2023-02-21T02:55:02.461Z,12.05
2023-02-21T02:57:28.810Z,11.75
2023-02-21T02:59:55.064Z,11.13
2023-02-21T03:02:21.342Z,11.18
2023-02-21T03:04:48.052Z,10.90
2023-02-21T03:07:14.486Z,10.68
2023-02-21T03:09:40.791Z,10.82
2023-02-21T03:12:07.538Z,10.70
2023-02-21T03:14:33.904Z,11.10
2023-02-21T03:17:00.396Z,10.90
2023-02-21T03:19:26.772Z,11.38
2023-02-21T03:21:53.350Z,11.05
2023-02-21T03:24:19.673Z,11.88
2023-02-21T03:26:46.032Z,10.98
2023-02-21T03:29:12.418Z,11.48
2023-02-21T03:31:38.950Z,10.30
2023-02-21T03:34:05.340Z,10.88
2023-02-21T03:36:31.701Z,11.00
2023-02-21T03:38:58.093Z,10.70
2023-02-21T03:41:25.233Z,10.55
2023-02-21T03:43:51.702Z,10.73
2023-02-21T03:46:18.097Z,11.27
2023-02-21T03:48:44.464Z,10.48
2023-02-21T03:51:10.837Z,10.73
2023-02-21T03:53:37.146Z,10.23
2023-02-21T03:56:03.566Z,11.40
2023-02-21T03:58:30.181Z,11.88
2023-02-21T04:00:57.211Z,10.23
2023-02-21T04:03:23.550Z,10.80
2023-02-21T04:05:50.034Z,11.00
2023-02-21T04:08:16.416Z,10.90
2023-02-21T04:10:51.715Z,10.30
2023-02-21T04:13:19.195Z,11.85
2023-02-21T04:15:45.565Z,10.75
2023-02-21T04:18:11.946Z,10.43
2023-02-21T04:20:38.622Z,9.90
2023-02-21T04:23:05.074Z,11.57
2023-02-21T04:25:31.389Z,10.43
2023-02-21T04:27:57.906Z,9.55
2023-02-21T04:30:24.307Z,10.48
2023-02-21T04:32:50.904Z,10.75
2023-02-21T04:35:17.233Z,10.57
2023-02-21T04:37:43.740Z,10.38
2023-02-21T04:40:10.175Z,11.65
2023-02-21T04:42:36.714Z,10.32
2023-02-21T04:45:03.401Z,10.38
2023-02-21T04:47:29.764Z,9.88
2023-02-21T04:49:56.094Z,10.55
2023-02-21T04:52:22.536Z,9.77
2023-02-21T04:54:49.159Z,11.48
2023-02-21T04:57:15.598Z,9.98
2023-02-21T04:59:41.950Z,10.80
2023-02-21T05:02:08.347Z,10.55
2023-02-21T05:04:34.852Z,9.95
2023-02-21T05:07:01.301Z,11.82
2023-02-21T05:09:27.721Z,10.70
2023-02-21T05:11:54.313Z,10.98
2023-02-21T05:14:20.841Z,9.90
2023-02-21T05:16:47.247Z,10.57
2023-02-21T05:19:14.045Z,11.13
2023-02-21T05:21:40.374Z,10.20
2023-02-21T05:24:06.734Z,11.52
2023-02-21T05:26:33.381Z,9.43
2023-02-21T05:28:59.906Z,10.63
2023-02-21T05:31:26.453Z,10.48
2023-02-21T05:33:53.018Z,11.57
2023-02-21T05:36:19.417Z,12.32
2023-02-21T05:38:45.836Z,10.10
2023-02-21T05:41:12.163Z,9.77
2023-02-21T05:43:38.594Z,10.55
2023-02-21T05:46:05.295Z,10.27
2023-02-21T05:48:31.992Z,11.13
2023-02-21T05:50:58.427Z,10.93
2023-02-21T05:53:24.876Z,10.75
2023-02-21T05:55:51.228Z,9.93
2023-02-21T05:58:17.587Z,11.00
2023-02-21T06:00:43.965Z,11.48
2023-02-21T06:03:10.335Z,11.02
2023-02-21T06:05:36.662Z,10.82
2023-02-21T06:08:03.011Z,10.93
2023-02-21T06:10:29.354Z,11.43
2023-02-21T06:12:55.739Z,10.77
2023-02-21T06:15:22.079Z,10.57
2023-02-21T06:17:48.455Z,11.25
2023-02-21T06:20:14.852Z,10.48
2023-02-21T06:22:41.242Z,10.65
2023-02-21T06:25:07.581Z,10.32
2023-02-21T06:27:34.145Z,11.52
2023-02-21T06:30:00.506Z,10.55
2023-02-21T06:32:27.323Z,11.10
2023-02-21T06:34:53.956Z,11.75
2023-02-21T06:37:20.313Z,10.82
2023-02-21T06:39:46.636Z,11.90
2023-02-21T06:42:12.933Z,10.65
2023-02-21T06:44:39.336Z,10.20
2023-02-21T06:47:05.686Z,9.90
2023-02-21T06:49:32.141Z,11.50
2023-02-21T06:51:58.496Z,13.35
2023-02-21T06:54:24.909Z,12.82
2023-02-21T06:56:51.192Z,15.57
2023-02-21T06:59:17.630Z,14.82
2023-02-21T07:01:44.924Z,11.82
2023-02-21T07:04:11.408Z,15.32
2023-02-21T07:06:37.814Z,14.65
2023-02-21T07:09:04.314Z,14.07
2023-02-21T07:11:31.413Z,13.05
2023-02-21T07:13:57.986Z,15.65
2023-02-21T07:16:24.637Z,11.82
2023-02-21T07:18:50.962Z,12.00
2023-02-21T07:21:17.452Z,14.07
2023-02-21T07:23:44.104Z,10.65
2023-02-21T07:26:10.432Z,12.88
2023-02-21T07:28:37.150Z,12.70
2023-02-21T07:31:03.630Z,13.40
2023-02-21T07:33:30.162Z,13.35
2023-02-21T07:35:56.547Z,13.60
2023-02-21T07:38:23.747Z,12.32
2023-02-21T07:40:50.072Z,11.63
2023-02-21T07:43:17.101Z,11.88
2023-02-21T07:45:43.629Z,12.27
2023-02-21T07:48:10.031Z,11.82
2023-02-21T07:50:36.301Z,12.65
2023-02-21T07:53:02.727Z,11.88
2023-02-21T07:55:29.562Z,12.75
2023-02-21T07:57:56.226Z,12.40
2023-02-21T08:00:22.578Z,13.00
2023-02-21T08:02:49.121Z,12.85
2023-02-21T08:05:15.814Z,12.18
2023-02-21T08:07:42.609Z,11.55
2023-02-21T08:10:09.022Z,13.05
2023-02-21T08:12:35.340Z,11.90
2023-02-21T08:15:01.810Z,14.55
2023-02-21T08:17:28.454Z,12.15
2023-02-21T08:19:55.106Z,13.93
2023-02-21T08:22:21.475Z,16.10
2023-02-21T08:24:47.969Z,19.48
2023-02-21T08:27:14.314Z,18.35
2023-02-21T08:29:41.167Z,29.27
2023-02-21T08:32:07.747Z,25.15
2023-02-21T08:34:34.145Z,32.08
2023-02-21T08:37:00.465Z,47.22
2023-02-21T08:39:27.044Z,51.53
2023-02-21T08:41:53.436Z,58.40
2023-02-21T08:44:19.752Z,60.00
2023-02-21T08:46:47.782Z,61.67
2023-02-21T08:49:15.803Z,60.45
2023-02-21T08:51:42.685Z,65.05
2023-02-21T08:54:09.281Z,66.97
2023-02-21T08:56:35.971Z,71.32
2023-02-21T08:59:02.434Z,71.70
2023-02-21T09:01:28.842Z,75.35
2023-02-21T09:03:55.509Z,75.32
2023-02-21T09:06:21.892Z,77.85
2023-02-21T09:08:48.212Z,76.47
2023-02-21T09:11:15.046Z,76.53
2023-02-21T09:13:41.676Z,81.82
2023-02-21T09:16:08.313Z,81.43
2023-02-21T09:18:34.841Z,81.40
2023-02-21T09:21:01.135Z,82.50
2023-02-21T09:23:27.925Z,83.30
2023-02-21T09:25:54.369Z,81.75
2023-02-21T09:28:20.701Z,78.88
2023-02-21T09:30:47.055Z,79.28
2023-02-21T09:33:13.865Z,81.93
2023-02-21T09:35:41.085Z,80.22
2023-02-21T09:38:07.418Z,81.07
2023-02-21T09:40:33.792Z,80.90
2023-02-21T09:43:00.181Z,80.70
2023-02-21T09:45:26.602Z,81.50
2023-02-21T09:47:53.523Z,80.30
2023-02-21T09:50:20.143Z,81.82
2023-02-21T09:52:46.909Z,79.70
2023-02-21T09:55:13.225Z,81.82
2023-02-21T09:57:39.523Z,82.05
2023-02-21T10:00:05.839Z,84.35
2023-02-21T10:02:32.180Z,79.38
2023-02-21T10:04:58.917Z,82.55
2023-02-21T10:07:25.587Z,83.22
2023-02-21T10:09:51.954Z,79.30
2023-02-21T10:12:18.389Z,80.28
2023-02-21T10:14:45.456Z,76.80
2023-02-21T10:17:12.001Z,80.13
2023-02-21T10:19:38.272Z,77.28
2023-02-21T10:22:04.553Z,75.82
2023-02-21T10:24:30.989Z,76.53
2023-02-21T10:26:57.297Z,77.28
2023-02-21T10:29:24.010Z,77.03
2023-02-21T10:31:50.637Z,71.85
2023-02-21T10:34:17.258Z,72.20
2023-02-21T10:36:43.565Z,71.40
2023-02-21T10:39:09.906Z,70.50
2023-02-21T10:41:36.227Z,68.57
2023-02-21T10:44:02.574Z,71.10
2023-02-21T10:46:28.870Z,67.22
2023-02-21T10:48:55.699Z,67.57
2023-02-21T10:51:22.000Z,66.68
2023-02-21T10:53:48.400Z,64.03
2023-02-21T10:56:15.271Z,65.32
2023-02-21T10:58:42.150Z,64.47
2023-02-21T11:01:08.566Z,62.45
2023-02-21T11:03:34.871Z,61.00
2023-02-21T11:06:01.251Z,57.80
2023-02-21T11:08:27.578Z,61.08
2023-02-21T11:10:53.861Z,59.67
2023-02-21T11:13:20.312Z,57.22
2023-02-21T11:15:46.660Z,55.10
2023-02-21T11:18:12.966Z,55.53
2023-02-21T11:20:39.318Z,55.65
2023-02-21T11:23:06.016Z,53.08
2023-02-21T11:25:32.444Z,54.53
2023-02-21T11:27:58.755Z,53.20
2023-02-21T11:30:25.463Z,52.67
2023-02-21T11:32:51.931Z,51.90
2023-02-21T11:35:18.429Z,50.05
2023-02-21T11:37:45.463Z,52.20
2023-02-21T11:40:11.853Z,49.17
2023-02-21T11:42:38.140Z,47.85
2023-02-21T11:45:04.510Z,48.53
2023-02-21T11:47:30.928Z,45.92
2023-02-21T11:49:57.299Z,46.58
2023-02-21T11:52:23.690Z,44.75
2023-02-21T11:54:50.164Z,44.30
2023-02-21T11:57:16.502Z,42.85
2023-02-21T11:59:42.836Z,45.65
2023-02-21T12:02:09.153Z,44.45
2023-02-21T12:04:36.026Z,41.72
2023-02-21T12:07:02.531Z,44.10
2023-02-21T12:09:29.143Z,40.30
2023-02-21T12:11:55.506Z,38.90
2023-02-21T12:14:21.885Z,40.63
2023-02-21T12:16:48.433Z,40.88
2023-02-21T12:19:14.802Z,39.47
2023-02-21T12:21:41.170Z,37.28
2023-02-21T12:24:07.880Z,35.90
2023-02-21T12:26:34.736Z,36.88
2023-02-21T12:29:01.205Z,36.40
2023-02-21T12:31:27.731Z,36.22
2023-02-21T12:33:54.418Z,35.13
2023-02-21T12:36:20.788Z,36.15
2023-02-21T12:38:47.164Z,33.08
2023-02-21T12:41:13.740Z,34.75
2023-02-21T12:43:40.505Z,33.70
2023-02-21T12:46:07.185Z,33.90
2023-02-21T12:48:33.571Z,32.33
2023-02-21T12:50:59.992Z,32.45
2023-02-21T12:53:26.657Z,31.48
2023-02-21T12:55:52.987Z,32.92
2023-02-21T12:58:19.318Z,29.95
2023-02-21T13:00:45.690Z,28.27
2023-02-21T13:03:12.452Z,32.10
2023-02-21T13:05:38.757Z,29.73
2023-02-21T13:08:05.184Z,34.67
2023-02-21T13:10:31.617Z,33.95
2023-02-21T13:12:57.955Z,36.10
2023-02-21T13:15:24.862Z,37.30
2023-02-21T13:17:51.388Z,42.67
2023-02-21T13:20:18.244Z,47.22
2023-02-21T13:22:44.548Z,53.58
2023-02-21T13:25:11.050Z,50.28
2023-02-21T13:27:37.753Z,59.10
2023-02-21T13:30:04.231Z,65.75
2023-02-21T13:32:30.955Z,68.22
2023-02-21T13:34:57.290Z,70.32
2023-02-21T13:37:23.714Z,79.13
2023-02-21T13:39:51.599Z,85.68
2023-02-21T13:42:19.876Z,99.50
2023-02-21T13:44:46.450Z,94.95
2023-02-21T13:47:12.734Z,109.20
2023-02-21T13:49:39.081Z,105.47
2023-02-21T13:52:05.586Z,105.05
2023-02-21T13:54:31.958Z,174.23
2023-02-21T13:56:58.279Z,119.15
2023-02-21T13:59:25.675Z,115.45
2023-02-21T14:01:51.976Z,121.15
2023-02-21T14:04:18.309Z,111.15
2023-02-21T14:06:44.762Z,111.43
2023-02-21T14:09:11.088Z,114.53
2023-02-21T14:11:37.426Z,113.10
2023-02-21T14:14:04.067Z,110.75
2023-02-21T14:16:30.440Z,120.50
2023-02-21T14:18:56.826Z,116.53
2023-02-21T14:21:23.538Z,111.70
2023-02-21T14:23:50.052Z,113.68
2023-02-21T14:26:16.728Z,108.70
2023-02-21T14:28:43.153Z,111.63
2023-02-21T14:31:09.511Z,107.38
2023-02-21T14:33:36.144Z,109.45
2023-02-21T14:36:02.510Z,109.53
2023-02-21T14:38:29.382Z,109.20
2023-02-21T14:40:55.768Z,104.68
2023-02-21T14:43:22.116Z,104.53
2023-02-21T14:45:48.471Z,103.93
2023-02-21T14:48:14.955Z,103.78
2023-02-21T14:50:41.311Z,101.85
2023-02-21T14:53:07.777Z,104.28
2023-02-21T14:55:34.725Z,92.90
2023-02-21T14:58:01.270Z,89.90
2023-02-21T15:00:27.732Z,91.70
2023-02-21T15:02:54.042Z,89.05
2023-02-21T15:05:20.589Z,81.63
2023-02-21T15:07:47.068Z,86.68
2023-02-21T15:10:13.398Z,85.45
2023-02-21T15:12:39.774Z,82.55
2023-02-21T15:15:06.147Z,83.65
2023-02-21T15:17:32.418Z,74.85
2023-02-21T15:20:00.096Z,78.35
2023-02-21T15:22:26.439Z,72.50
2023-02-21T15:24:53.315Z,81.70
2023-02-21T15:27:19.720Z,71.93
2023-02-21T15:29:46.023Z,77.50
2023-02-21T15:32:12.499Z,68.50
2023-02-21T15:34:38.909Z,68.38
2023-02-21T15:37:05.488Z,69.35
2023-02-21T15:39:32.017Z,77.65
2023-02-21T15:41:58.465Z,75.57
2023-02-21T15:44:24.772Z,69.15
2023-02-21T15:46:51.569Z,81.88
2023-02-21T15:49:17.942Z,76.45
2023-02-21T15:51:44.286Z,73.57
2023-02-21T15:54:10.658Z,70.85
2023-02-21T15:56:37.057Z,74.43
2023-02-21T15:59:03.586Z,71.05
2023-02-21T16:01:30.292Z,69.85
2023-02-21T16:03:56.654Z,66.40
2023-02-21T16:06:23.688Z,66.60
2023-02-21T16:08:49.995Z,66.45
2023-02-21T16:11:17.032Z,65.90
2023-02-21T16:13:45.951Z,63.78
2023-02-21T16:16:12.994Z,63.90
2023-02-21T16:18:39.327Z,62.13
2023-02-21T16:21:06.398Z,60.55
2023-02-21T16:23:33.549Z,60.25
2023-02-21T16:25:59.932Z,60.30
2023-02-21T16:28:26.678Z,53.55
2023-02-21T16:30:53.247Z,57.72
2023-02-21T16:33:19.661Z,56.72
2023-02-21T16:35:46.556Z,53.80
2023-02-21T16:38:13.119Z,50.95
2023-02-21T16:40:39.571Z,47.90
2023-02-21T16:43:05.973Z,52.30
2023-02-21T16:45:32.795Z,46.25
2023-02-21T16:47:59.170Z,50.33
2023-02-21T16:50:25.864Z,46.53
2023-02-21T16:52:52.503Z,41.30
2023-02-21T16:55:19.286Z,39.97
2023-02-21T16:57:45.692Z,41.70
2023-02-21T17:00:12.059Z,46.47
2023-02-21T17:02:39.369Z,44.55
2023-02-21T17:05:06.405Z,40.00
2023-02-21T17:07:32.825Z,42.80
2023-02-21T17:09:59.629Z,38.67
2023-02-21T17:12:25.958Z,37.30
2023-02-21T17:14:52.350Z,40.53
2023-02-21T17:17:19.166Z,46.03
2023-02-21T17:19:45.560Z,43.53
2023-02-21T17:22:12.143Z,37.92
2023-02-21T17:24:38.536Z,41.80
2023-02-21T17:27:05.540Z,45.38
2023-02-21T17:29:32.005Z,43.45
2023-02-21T17:31:58.519Z,42.42
2023-02-21T17:34:25.474Z,42.83
2023-02-21T17:36:52.031Z,42.35
2023-02-21T17:39:18.783Z,43.75
2023-02-21T17:41:45.154Z,42.72
2023-02-21T17:44:12.143Z,45.55
2023-02-21T17:46:39.260Z,132.23
2023-02-21T17:49:05.798Z,173.65
2023-02-21T17:51:32.296Z,177.60
2023-02-21T17:53:58.591Z,168.82
2023-02-21T17:56:24.875Z,165.50
2023-02-21T17:58:51.229Z,161.07
2023-02-21T18:01:17.672Z,228.45
2023-02-21T18:03:44.150Z,330.60
2023-02-21T18:06:10.739Z,285.00
2023-02-21T18:08:37.066Z,279.52
2023-02-21T18:11:03.497Z,272.63
2023-02-21T18:13:29.947Z,261.25
2023-02-21T18:15:56.348Z,249.93
2023-02-21T18:18:22.662Z,243.85
2023-02-21T18:20:49.350Z,235.93
2023-02-21T18:23:17.023Z,226.05
2023-02-21T18:25:43.359Z,213.85
2023-02-21T18:28:09.914Z,367.85
2023-02-21T18:30:36.510Z,378.85
2023-02-21T18:33:02.882Z,329.27
2023-02-21T18:35:29.175Z,315.73
2023-02-21T18:37:55.810Z,309.23
2023-02-21T18:40:22.191Z,294.02
2023-02-21T18:42:48.690Z,283.17
2023-02-21T18:45:15.356Z,273.20
2023-02-21T18:47:41.715Z,261.02
2023-02-21T18:50:08.069Z,255.23
2023-02-21T18:52:34.431Z,250.40
2023-02-21T18:55:00.725Z,241.43
2023-02-21T18:57:27.123Z,235.77
2023-02-21T18:59:53.600Z,228.85
2023-02-21T19:02:19.963Z,213.90
2023-02-21T19:04:46.688Z,213.80
2023-02-21T19:07:13.411Z,209.93
2023-02-21T19:09:39.864Z,206.00
2023-02-21T19:12:06.287Z,197.48
2023-02-21T19:14:32.808Z,191.15
2023-02-21T19:16:59.117Z,187.25
2023-02-21T19:19:25.447Z,185.23
2023-02-21T19:21:52.062Z,175.25
2023-02-21T19:24:18.941Z,171.60
2023-02-21T19:26:45.474Z,173.80
2023-02-21T19:29:11.954Z,167.05
2023-02-21T19:31:39.270Z,163.63
2023-02-21T19:34:05.851Z,155.02
2023-02-21T19:36:32.210Z,148.95
2023-02-21T19:38:58.816Z,155.02
2023-02-21T19:41:25.148Z,201.85
2023-02-21T19:43:51.456Z,231.55
2023-02-21T19:46:17.820Z,254.65
2023-02-21T19:48:44.222Z,250.23
2023-02-21T19:51:10.911Z,242.60
2023-02-21T19:53:37.229Z,234.77
2023-02-21T19:56:04.227Z,231.60
2023-02-21T19:58:31.055Z,228.00
2023-02-21T20:00:57.858Z,214.85
2023-02-21T20:03:24.175Z,211.10
2023-02-21T20:05:50.491Z,201.05
2023-02-21T20:08:16.886Z,190.70
2023-02-21T20:10:43.538Z,189.57
2023-02-21T20:13:09.892Z,181.88
2023-02-21T20:15:36.881Z,176.77
2023-02-21T20:18:03.398Z,171.23
2023-02-21T20:20:29.825Z,191.55
2023-02-21T20:22:56.357Z,220.45
2023-02-21T20:25:22.748Z,277.67
2023-02-21T20:27:49.921Z,286.83
2023-02-21T20:30:17.100Z,288.15
2023-02-21T20:32:43.604Z,283.15
2023-02-21T20:35:09.926Z,269.30
2023-02-21T20:37:36.550Z,262.88
2023-02-21T20:40:03.039Z,276.38
2023-02-21T20:42:29.423Z,331.35
2023-02-21T20:44:56.009Z,370.77
2023-02-21T20:47:22.360Z,376.00
2023-02-21T20:49:48.629Z,362.77
2023-02-21T20:52:14.961Z,353.13
2023-02-21T20:54:41.564Z,346.05
2023-02-21T20:57:08.464Z,334.10
2023-02-21T20:59:35.033Z,327.73
2023-02-21T21:02:01.415Z,322.83
2023-02-21T21:04:28.216Z,304.33
2023-02-21T21:06:54.634Z,302.05
2023-02-21T21:09:20.950Z,292.15
2023-02-21T21:11:48.022Z,326.75
2023-02-21T21:14:16.126Z,378.52
2023-02-21T21:16:43.028Z,397.13
2023-02-21T21:19:09.309Z,392.88
2023-02-21T21:21:35.765Z,384.75
2023-02-21T21:24:02.117Z,374.75
2023-02-21T21:26:28.597Z,357.40
2023-02-21T21:28:54.970Z,355.67
2023-02-21T21:31:21.420Z,328.95
2023-02-21T21:33:47.890Z,321.42
2023-02-21T21:36:14.309Z,342.75
2023-02-21T21:38:40.685Z,327.35
2023-02-21T21:41:07.636Z,329.23
2023-02-21T21:43:34.005Z,426.08
2023-02-21T21:46:00.630Z,423.00
2023-02-21T21:48:27.040Z,414.15
2023-02-21T21:50:53.589Z,407.00
2023-02-21T21:53:20.052Z,406.17
2023-02-21T21:55:47.342Z,392.60
2023-02-21T21:58:13.852Z,376.88
2023-02-21T22:00:41.162Z,371.77
2023-02-21T22:03:08.191Z,364.92
2023-02-21T22:05:34.568Z,370.00
2023-02-21T22:08:00.966Z,395.35
2023-02-21T22:10:27.589Z,411.83
2023-02-21T22:12:54.285Z,422.77
2023-02-21T22:15:20.673Z,415.70
2023-02-21T22:17:47.042Z,416.05
2023-02-21T22:20:13.456Z,396.70
2023-02-21T22:22:40.198Z,389.40
2023-02-21T22:25:06.664Z,380.33
2023-02-21T22:27:33.662Z,367.67
2023-02-21T22:30:00.045Z,355.63
2023-02-21T22:32:26.534Z,345.63
2023-02-21T22:34:52.873Z,401.33
2023-02-21T22:37:19.642Z,478.83
2023-02-21T22:39:45.908Z,478.65
2023-02-21T22:42:12.871Z,478.52
2023-02-21T22:44:39.435Z,477.67
2023-02-21T22:47:06.328Z,512.88
2023-02-21T22:49:34.887Z,563.13
2023-02-21T22:52:01.293Z,584.17
2023-02-21T22:54:27.644Z,590.08
2023-02-21T22:56:54.112Z,608.05
2023-02-21T22:59:20.513Z,617.40
2023-02-21T23:01:47.618Z,641.05
2023-02-21T23:04:14.016Z,644.05
2023-02-21T23:06:40.774Z,622.17
2023-02-21T23:09:07.233Z,606.05
2023-02-21T23:11:34.045Z,599.40
2023-02-21T23:14:00.635Z,593.30
2023-02-21T23:16:27.216Z,579.45
2023-02-21T23:18:53.668Z,581.00
2023-02-21T23:21:20.400Z,568.03
2023-02-21T23:23:48.197Z,554.03
2023-02-21T23:26:21.065Z,552.80
2023-02-21T23:28:52.937Z,550.22
2023-02-21T23:31:19.559Z,538.28
2023-02-21T23:33:46.300Z,525.20
2023-02-21T23:36:12.954Z,520.70
2023-02-21T23:38:39.362Z,519.88
2023-02-21T23:41:05.838Z,504.25
2023-02-21T23:43:32.302Z,500.80
2023-02-21T23:45:59.040Z,499.95
2023-02-21T23:48:25.458Z,501.10
2023-02-21T23:50:51.824Z,483.40
2023-02-21T23:53:18.698Z,476.50
2023-02-21T23:55:45.077Z,472.10
2023-02-21T23:58:11.440Z,464.23
